首页
METAR-TAF:

METAR-TAF

机场 :

Ford Airport

Iron Mountain / Kingsford, 密歇根州, 美国

纬度: 45-48-51N, 经度: 088-06-32W, 海拔: 360米

当前天气观测

该预报发布于24分钟前的14:54 UTC
风速3节,风向西
温度 22°C
湿度 83%
气压 1008 hPa
能見度: 12.9公里
多云层高于6000英尺

METAR: KIMT 221454Z AUTO 26003KT 8SM BKN060 22/19 A2976 RMK AO2 SLP074 T02170194 58003

时间: 11:18 (15:18 UTC)


TAF: 丢失

超过4000个机场的气象观测和天气预报(METAR&TAF报告)。

可查询的气象台以黄色和红色小点在地图上表示。

将鼠标移到小点上方,可查看气象台名称。

然后点击查看天气观测和预报。

如需切换地图:点击带黑十字的绿色按钮放大地图;点击带横线的绿色按钮缩小地图;或者点击绿色箭头查看邻近地区的地图。


METAR-TAF: